Time;durP1;ratioP1;P1;durP2;ratioP2;P2;SDS_P1;SDS_P2;PMS_P1;PMS_P2;Temp;Humidity;BMP_temperature;BMP_pressure;BME280_temperature;BME280_humidity;BME280_pressure;Samples;Min_cycle;Max_cycle;Signal;HPM_P1;HPM_P2
2022/05/15 00:02:25;;;;;;;3.90;3.60;;;;;;;-143.84;79.38;44997.66;5109671;28;20485;-72
2022/05/15 00:04:53;;;;;;;8.23;4.10;;;;;;;-143.84;81.04;45001.47;5109901;28;20451;-72
2022/05/15 00:07:20;;;;;;;7.30;3.77;;;;;;;-143.84;82.38;44990.03;5110237;28;20496;-72
2022/05/15 00:09:47;;;;;;;5.00;3.23;;;;;;;-143.84;82.67;44959.56;5109937;28;20446;-72
2022/05/15 00:12:16;;;;;;;14.63;4.57;;;;;;;-143.84;83.86;44959.56;5109890;28;20434;-72
2022/05/15 00:14:44;;;;;;;10.73;3.93;;;;;;;-143.84;84.61;44938.63;5109604;28;20446;-72
2022/05/15 00:17:11;;;;;;;10.53;3.87;;;;;;;-143.84;85.44;44944.34;5109860;28;20444;-72
2022/05/15 00:19:40;;;;;;;7.27;4.20;;;;;;;-143.84;86.08;44887.22;5109775;28;20431;-72
2022/05/15 00:22:08;;;;;;;9.17;4.03;;;;;;;-143.84;87.67;44847.22;5109762;28;20446;-72
2022/05/15 00:24:35;;;;;;;5.70;4.03;;;;;;;-143.84;88.33;44790.13;5109411;28;20506;-72
2022/05/15 00:27:02;;;;;;;5.23;3.97;;;;;;;-143.84;87.07;44816.78;5109712;28;20443;-72
2022/05/15 00:29:29;;;;;;;7.67;4.60;;;;;;;-143.84;88.62;44734.91;5109541;28;20514;-72
2022/05/15 00:31:57;;;;;;;11.60;4.70;;;;;;;-143.84;87.45;44820.56;5109493;28;20446;-72
2022/05/15 00:34:24;;;;;;;5.13;4.60;;;;;;;-143.84;87.70;44830.09;5109565;28;20443;-73
2022/05/15 00:36:53;;;;;;;10.03;4.67;;;;;;;-143.84;85.98;44849.13;5108713;28;20447;-72
2022/05/15 00:39:20;;;;;;;4.07;3.77;;;;;;;-143.84;85.45;44900.53;5108603;28;20508;-73
2022/05/15 00:41:47;;;;;;;4.97;4.60;;;;;;;-143.84;85.63;44870.09;5109003;28;20437;-73
2022/05/15 00:44:15;;;;;;;5.80;4.80;;;;;;;-143.84;87.28;44860.56;5109361;28;20475;-72
2022/05/15 00:46:43;;;;;;;8.97;5.43;;;;;;;-143.84;89.73;44673.97;5109275;28;20439;-72
2022/05/15 00:49:13;;;;;;;5.57;5.17;;;;;;;-143.84;90.72;44527.38;5111604;28;20835;-72
2022/05/15 00:51:45;;;;;;;4.60;4.30;;;;;;;-143.84;90.52;44458.81;5113420;28;20442;-72
2022/05/15 00:54:20;;;;;;;6.43;5.27;;;;;;;-143.84;90.59;44487.38;5113204;28;20450;-72
2022/05/15 00:56:51;;;;;;;4.87;4.57;;;;;;;-143.84;89.80;44567.34;5113469;28;20427;-72
2022/05/15 00:59:22;;;;;;;7.03;6.40;;;;;;;-143.84;89.51;44595.91;5113200;28;20499;-72
2022/05/15 01:01:49;;;;;;;6.63;6.00;;;;;;;-143.84;91.06;44392.19;5112965;28;20895;-72
2022/05/15 01:04:17;;;;;;;5.63;5.30;;;;;;;-143.84;92.75;44001.94;5113221;28;20482;-72
2022/05/15 01:06:44;;;;;;;5.70;5.30;;;;;;;-143.84;90.93;44297.00;5113379;28;20446;-72
2022/05/15 01:09:14;;;;;;;6.50;5.43;;;;;;;-143.84;91.64;44127.56;5113076;27;20439;-72
2022/05/15 01:11:46;;;;;;;7.23;5.53;;;;;;;-143.84;92.14;44060.94;5113072;28;20436;-72
2022/05/15 01:14:16;;;;;;;5.53;5.13;;;;;;;-143.84;91.99;44026.69;5113010;28;20450;-72
2022/05/15 01:16:43;;;;;;;12.80;5.40;;;;;;;-143.84;91.92;44112.34;5112871;28;20446;-72
2022/05/15 01:19:10;;;;;;;7.90;4.67;;;;;;;-143.84;91.84;44095.22;5112636;27;20492;-72
2022/05/15 01:21:42;;;;;;;9.60;5.10;;;;;;;-143.84;91.72;44158.03;5113034;27;20439;-72
2022/05/15 01:24:10;;;;;;;6.67;6.07;;;;;;;-143.84;91.27;44243.69;5112618;28;20479;-72
2022/05/15 01:26:39;;;;;;;9.03;6.90;;;;;;;-143.84;91.45;44226.56;5112578;28;20478;-72
2022/05/15 01:29:07;;;;;;;8.10;6.30;;;;;;;-143.84;90.87;44300.81;5112919;28;20427;-72
2022/05/15 01:31:36;;;;;;;6.77;6.17;;;;;;;-143.84;90.03;44552.13;5112427;28;20500;-72
2022/05/15 01:34:07;;;;;;;6.10;5.50;;;;;;;-143.84;88.22;44691.09;5112889;27;20443;-72
2022/05/15 01:36:34;;;;;;;9.90;5.10;;;;;;;-143.84;91.27;44335.09;5112578;28;20434;-72
2022/05/15 01:39:04;;;;;;;4.80;4.40;;;;;;;-143.84;92.38;44070.47;5112333;28;20515;-72
2022/05/15 01:41:31;;;;;;;5.20;4.80;;;;;;;-143.84;92.89;43988.63;5112393;28;20454;-72
2022/05/15 01:43:58;;;;;;;6.47;4.83;;;;;;;-143.84;92.94;43954.34;5112193;28;20538;-72
2022/05/15 01:46:28;;;;;;;5.10;4.53;;;;;;;-143.84;92.32;44093.31;5112476;28;20430;-72
2022/05/15 01:48:56;;;;;;;5.40;4.90;;;;;;;-143.84;92.60;44013.38;5112214;28;20442;-72
2022/05/15 01:51:24;;;;;;;6.93;5.70;;;;;;;-143.84;93.05;43967.69;5112161;28;20435;-72
2022/05/15 01:53:51;;;;;;;8.93;5.80;;;;;;;-143.84;93.08;43984.81;5111954;28;20869;-73
2022/05/15 01:56:20;;;;;;;6.57;6.07;;;;;;;-143.84;93.27;43920.09;5112466;28;20872;-73
2022/05/15 01:58:47;;;;;;;7.07;6.47;;;;;;;-143.84;92.80;43979.09;5111980;28;21019;-73
2022/05/15 02:01:14;;;;;;;6.77;6.10;;;;;;;-143.84;92.40;44053.34;5110388;28;20462;-73
2022/05/15 02:03:41;;;;;;;9.13;6.03;;;;;;;-143.84;92.37;44024.78;5111936;28;20539;-73
2022/05/15 02:06:08;;;;;;;7.57;6.30;;;;;;;-143.84;92.41;44051.44;5112051;28;20799;-72
2022/05/15 02:08:37;;;;;;;7.30;6.70;;;;;;;-143.84;91.81;44186.59;5112489;27;20419;-72
2022/05/15 02:11:05;;;;;;;8.50;5.40;;;;;;;-143.84;90.81;44420.75;5112485;28;20854;-72
2022/05/15 02:13:33;;;;;;;6.17;5.57;;;;;;;-143.84;91.09;44380.78;5111975;28;20445;-72
2022/05/15 02:16:01;;;;;;;6.67;5.97;;;;;;;-143.84;92.06;44142.81;5111918;27;20439;-73
2022/05/15 02:18:28;;;;;;;6.43;6.03;;;;;;;-143.84;92.08;44156.13;5112395;28;20499;-73
2022/05/15 02:20:56;;;;;;;7.43;5.47;;;;;;;-143.84;92.54;44041.91;5112546;28;20998;-72
2022/05/15 02:23:23;;;;;;;7.80;5.50;;;;;;;-143.84;92.70;44066.66;5111734;28;21011;-72
2022/05/15 02:25:51;;;;;;;9.00;6.43;;;;;;;-143.84;92.95;44011.47;5111280;28;20863;-73
2022/05/15 02:28:18;;;;;;;6.63;5.60;;;;;;;-143.84;93.06;43944.84;5111375;28;20510;-72
2022/05/15 02:30:49;;;;;;;6.47;5.97;;;;;;;-143.84;92.44;44072.38;5111863;28;20435;-72
2022/05/15 02:33:16;;;;;;;6.83;5.90;;;;;;;-143.84;91.62;44203.72;5112109;28;20449;-73
2022/05/15 02:35:43;;;;;;;6.63;6.13;;;;;;;-143.84;92.23;44163.75;5111676;28;20439;-72
2022/05/15 02:38:11;;;;;;;6.50;6.00;;;;;;;-143.84;92.15;44144.72;5111971;28;20435;-72
2022/05/15 02:40:38;;;;;;;6.93;6.23;;;;;;;-143.84;92.11;44154.22;5111697;28;20984;-72
2022/05/15 02:43:05;;;;;;;5.63;5.00;;;;;;;-143.84;91.91;44264.66;5111509;28;20446;-72
2022/05/15 02:45:33;;;;;;;6.00;5.50;;;;;;;-143.84;91.54;44314.13;5111151;28;20442;-72
2022/05/15 02:48:02;;;;;;;10.13;5.37;;;;;;;-143.84;91.53;44331.28;5111444;28;20439;-73
2022/05/15 02:53:13;;;;;;;8.67;6.40;;;;;;;-143.84;92.52;44064.75;5111140;28;20446;-73
2022/05/15 02:55:41;;;;;;;6.10;5.60;;;;;;;-143.84;92.30;44093.31;5110865;28;20504;-73
2022/05/15 02:58:08;;;;;;;6.43;5.30;;;;;;;-143.84;92.32;44142.81;5110948;28;20435;-73
2022/05/15 03:00:35;;;;;;;6.20;5.70;;;;;;;-143.84;92.33;44116.16;5111188;28;20463;-72
2022/05/15 03:03:03;;;;;;;7.60;5.53;;;;;;;-143.84;92.23;44142.81;5110534;27;20471;-73
2022/05/15 03:05:31;;;;;;;5.97;5.33;;;;;;;-143.84;92.29;44123.78;5110692;28;20451;-72
2022/05/15 03:07:59;;;;;;;5.33;4.83;;;;;;;-143.84;92.30;44159.94;5110756;28;20470;-72
2022/05/15 03:10:26;;;;;;;5.50;5.10;;;;;;;-143.84;92.14;44199.91;5110643;28;20431;-72
2022/05/15 03:12:53;;;;;;;5.23;4.90;;;;;;;-143.84;91.80;44255.13;5110433;28;20454;-72
2022/05/15 03:15:21;;;;;;;5.40;5.00;;;;;;;-143.84;92.08;44182.78;5110715;28;21282;-72
2022/05/15 03:17:48;;;;;;;6.37;5.87;;;;;;;-143.84;92.44;44099.03;5110366;28;20525;-72
2022/05/15 03:20:18;;;;;;;5.13;4.70;;;;;;;-143.84;92.29;44177.06;5110670;28;20439;-73
2022/05/15 03:22:46;;;;;;;6.73;5.77;;;;;;;-143.84;92.39;44123.78;5109447;28;20439;-73
2022/05/15 03:25:13;;;;;;;6.17;5.57;;;;;;;-143.84;91.70;44287.50;5109989;28;20482;-73
2022/05/15 03:27:40;;;;;;;6.13;5.67;;;;;;;-143.84;91.12;44439.78;5110925;28;20427;-72
2022/05/15 03:30:09;;;;;;;5.57;5.03;;;;;;;-143.84;90.75;44464.53;5110878;28;20454;-73
2022/05/15 03:32:37;;;;;;;5.30;5.00;;;;;;;-143.84;90.58;44521.66;5110937;28;20783;-72
2022/05/15 03:35:05;;;;;;;10.20;5.90;;;;;;;-143.84;90.46;44540.69;5110288;28;20531;-72
2022/05/15 03:37:34;;;;;;;6.17;5.53;;;;;;;-143.84;90.61;44529.28;5110322;28;20436;-72
2022/05/15 03:40:01;;;;;;;6.70;6.00;;;;;;;-143.84;90.38;44565.44;5110451;28;20854;-72
2022/05/15 03:42:29;;;;;;;6.57;5.43;;;;;;;-143.84;90.46;44504.53;5110031;28;20975;-72
2022/05/15 03:44:56;;;;;;;6.27;5.67;;;;;;;-143.84;90.01;44613.03;5110389;28;20982;-73
2022/05/15 03:47:24;;;;;;;10.20;6.33;;;;;;;-143.84;90.26;44586.38;5110384;28;21054;-73
2022/05/15 03:49:53;;;;;;;6.67;6.00;;;;;;;-143.84;90.63;44540.69;5110299;28;20431;-73
2022/05/15 03:52:21;;;;;;;7.53;6.83;;;;;;;-143.84;90.24;44607.34;5110137;28;20451;-72
2022/05/15 03:54:50;;;;;;;7.87;7.13;;;;;;;-143.84;90.95;44472.16;5109466;28;20474;-73
2022/05/15 03:57:17;;;;;;;7.53;6.50;;;;;;;-143.84;91.29;44430.28;5109854;28;20518;-73
2022/05/15 03:59:45;;;;;;;8.40;7.37;;;;;;;-143.84;92.23;44207.53;5109687;28;20449;-72
2022/05/15 04:02:12;;;;;;;8.53;7.73;;;;;;;-143.84;91.23;44441.69;5109542;28;20547;-72
2022/05/15 04:04:39;;;;;;;8.50;7.60;;;;;;;-143.84;92.43;44156.13;5109901;28;20573;-72
2022/05/15 04:07:07;;;;;;;12.03;7.50;;;;;;;-143.84;89.91;44637.78;5109249;28;20442;-72
2022/05/15 04:09:36;;;;;;;11.23;7.77;;;;;;;-143.84;90.83;44491.19;5109412;28;20434;-73
2022/05/15 04:12:05;;;;;;;9.17;7.20;;;;;;;-143.84;91.42;44413.13;5108803;28;20451;-73
2022/05/15 04:14:32;;;;;;;8.57;6.90;;;;;;;-143.84;91.32;44456.94;5109913;28;20602;-73
2022/05/15 04:16:59;;;;;;;8.43;7.63;;;;;;;-143.84;91.72;44346.50;5109729;28;20431;-72
2022/05/15 04:19:27;;;;;;;17.03;7.80;;;;;;;-143.84;91.80;44314.13;5110035;28;20948;-73
2022/05/15 04:21:54;;;;;;;8.53;7.43;;;;;;;-143.84;91.63;44388.38;5109916;28;20451;-73
2022/05/15 04:24:21;;;;;;;8.63;7.03;;;;;;;-143.84;91.66;44420.75;5112605;28;20548;-72
2022/05/15 04:26:48;;;;;;;8.97;8.07;;;;;;;-143.84;91.78;44386.47;5114292;28;20488;-73
2022/05/15 04:29:18;;;;;;;13.30;8.07;;;;;;;-143.84;91.22;44443.59;5113989;28;20434;-73
2022/05/15 04:31:45;;;;;;;8.87;7.90;;;;;;;-143.84;91.27;44437.88;5113873;27;20430;-73
2022/05/15 04:34:12;;;;;;;12.60;8.17;;;;;;;-143.84;91.09;44470.25;5113688;28;20499;-72
2022/05/15 04:36:40;;;;;;;11.93;8.37;;;;;;;-143.84;91.47;44418.84;5113502;28;20439;-72
2022/05/15 04:39:07;;;;;;;12.57;8.60;;;;;;;-143.84;93.96;43944.84;5113538;28;20453;-72
2022/05/15 04:41:35;;;;;;;9.93;8.87;;;;;;;-143.84;95.36;43769.72;5113515;28;20469;-72
2022/05/15 04:44:02;;;;;;;10.10;8.73;;;;;;;-143.84;95.46;43756.38;5113119;28;20485;-73
2022/05/15 04:46:30;;;;;;;9.70;8.70;;;;;;;-143.84;94.83;43752.59;5112633;27;20487;-72
2022/05/15 04:48:58;;;;;;;9.47;8.57;;;;;;;-143.84;92.95;43961.97;5113107;28;20454;-73
2022/05/15 04:51:26;;;;;;;9.30;8.40;;;;;;;-143.84;94.17;43899.16;5113583;28;20443;-73
2022/05/15 04:53:53;;;;;;;12.43;8.30;;;;;;;-143.84;94.68;43771.63;5112917;28;20447;-73
2022/05/15 04:56:20;;;;;;;8.70;7.90;;;;;;;-143.84;91.46;44211.34;5113241;28;20439;-73
2022/05/15 04:58:48;;;;;;;12.60;8.60;;;;;;;-143.84;91.32;44338.88;5112892;28;20777;-72
2022/05/15 05:01:15;;;;;;;15.17;8.27;;;;;;;-143.84;93.41;43965.78;5112676;28;20472;-73
2022/05/15 05:03:43;;;;;;;9.00;7.73;;;;;;;-143.84;93.31;43944.84;5112618;28;20460;-73
2022/05/15 05:06:11;;;;;;;10.77;8.43;;;;;;;-143.84;92.01;44226.56;5112755;28;20879;-73
2022/05/15 05:08:39;;;;;;;8.10;7.40;;;;;;;-143.84;92.90;44057.16;5112157;27;20442;-72
2022/05/15 05:11:06;;;;;;;9.33;7.10;;;;;;;-143.84;92.66;44110.44;5112829;28;20451;-72
2022/05/15 05:13:33;;;;;;;7.87;7.17;;;;;;;-143.84;92.50;44150.41;5112974;28;20431;-73
2022/05/15 05:16:00;;;;;;;11.80;7.40;;;;;;;-143.84;91.83;44295.09;5113098;28;20442;-73
2022/05/15 05:18:27;;;;;;;13.03;7.83;;;;;;;-143.84;91.28;44416.94;5113251;28;20458;-72
2022/05/15 05:20:57;;;;;;;9.07;7.57;;;;;;;-143.84;91.23;44426.47;5113339;28;20447;-72
2022/05/15 05:23:24;;;;;;;7.90;7.30;;;;;;;-143.84;90.69;44523.56;5112805;28;20465;-72
2022/05/15 05:25:51;;;;;;;8.33;7.40;;;;;;;-143.84;90.82;44498.81;5112606;28;20474;-72
2022/05/15 05:28:19;;;;;;;8.23;7.50;;;;;;;-143.84;90.29;44580.69;5112860;28;20435;-72
2022/05/15 05:30:47;;;;;;;9.70;7.50;;;;;;;-143.84;90.55;44552.13;5112636;28;20937;-73
2022/05/15 05:33:14;;;;;;;13.73;7.50;;;;;;;-143.84;90.08;44626.38;5113012;28;20513;-73
2022/05/15 05:35:41;;;;;;;8.43;7.63;;;;;;;-143.84;89.55;44675.88;5111997;28;20508;-72
2022/05/15 05:38:10;;;;;;;8.53;7.27;;;;;;;-143.84;89.15;44702.53;5112675;28;20458;-73
2022/05/15 05:40:38;;;;;;;8.00;7.20;;;;;;;-143.84;88.87;44746.31;5112005;28;20443;-72
2022/05/15 05:43:05;;;;;;;8.90;7.73;;;;;;;-143.84;89.17;44706.34;5110780;28;20451;-73
2022/05/15 05:45:32;;;;;;;11.30;7.47;;;;;;;-143.84;88.81;44733.00;5110447;28;20539;-73
2022/05/15 05:48:00;;;;;;;8.63;7.83;;;;;;;-143.84;88.47;44765.34;5111746;28;20439;-72
2022/05/15 05:50:28;;;;;;;9.50;7.30;;;;;;;-143.84;87.45;44839.63;5111650;28;20439;-72
2022/05/15 05:52:57;;;;;;;14.23;7.53;;;;;;;-143.84;87.52;44812.97;5111327;28;20439;-73
2022/05/15 05:55:27;;;;;;;7.40;6.80;;;;;;;-143.84;86.73;44879.59;5101032;28;20432;-73
2022/05/15 05:57:55;;;;;;;10.40;7.47;;;;;;;-143.84;86.39;44870.09;5092790;28;20867;-73
2022/05/15 06:00:25;;;;;;;7.03;6.53;;;;;;;-143.84;85.46;44910.06;5097427;28;20976;-73
2022/05/15 06:02:52;;;;;;;9.97;6.93;;;;;;;-143.84;85.37;44915.78;5102919;28;21257;-73
2022/05/15 06:05:19;;;;;;;7.97;6.80;;;;;;;-143.84;85.01;44919.59;5097967;28;20530;-73
2022/05/15 06:07:46;;;;;;;7.37;6.67;;;;;;;-143.84;84.48;44919.59;5091532;28;20443;-72
2022/05/15 06:10:14;;;;;;;9.73;6.37;;;;;;;-143.84;84.75;44908.16;5090551;28;20454;-69
2022/05/15 06:12:43;;;;;;;11.90;6.60;;;;;;;-143.84;84.85;44923.41;5090951;28;20970;-71
2022/05/15 06:15:11;;;;;;;13.43;6.63;;;;;;;-143.84;84.49;44906.25;5091121;28;20444;-69
2022/05/15 06:17:39;;;;;;;7.40;6.27;;;;;;;-143.84;84.20;44919.59;5091068;28;20440;-70
2022/05/15 06:20:11;;;;;;;10.43;6.20;;;;;;;-143.84;83.80;44932.91;5090802;28;20436;-73
2022/05/15 06:22:38;;;;;;;13.80;6.20;;;;;;;-143.84;83.05;44946.25;5091068;28;20425;-69
2022/05/15 06:25:06;;;;;;;5.73;5.23;;;;;;;-143.84;81.03;44963.38;5093167;28;21010;-72
2022/05/15 06:27:33;;;;;;;6.40;5.80;;;;;;;-143.84;83.32;44969.09;5101427;28;20496;-70
2022/05/15 06:30:02;;;;;;;10.37;6.77;;;;;;;-143.84;81.93;44959.56;5106259;28;20443;-73
2022/05/15 06:32:29;;;;;;;6.40;5.90;;;;;;;-143.84;83.55;44927.19;5110878;28;20443;-73
2022/05/15 06:34:57;;;;;;;11.00;4.80;;;;;;;-143.84;79.25;44980.53;5110254;28;21026;-73
2022/05/15 06:37:24;;;;;;;7.27;5.50;;;;;;;-143.84;76.60;44951.97;5110384;28;20423;-73
2022/05/15 06:39:51;;;;;;;5.07;4.50;;;;;;;-143.84;75.76;44993.84;5110195;28;20923;-73
2022/05/15 06:42:19;;;;;;;5.27;4.73;;;;;;;-143.84;71.21;44978.63;5108404;27;20507;-73
2022/05/15 06:44:46;;;;;;;5.10;4.37;;;;;;;-143.84;69.84;45003.38;5110573;28;20485;-74
2022/05/15 06:47:15;;;;;;;5.47;3.70;;;;;;;-143.84;68.19;44984.31;5110102;28;21009;-73
2022/05/15 06:49:42;;;;;;;8.00;3.60;;;;;;;-143.84;65.96;45014.78;5109625;28;20443;-73
2022/05/15 06:52:09;;;;;;;4.00;3.70;;;;;;;-143.84;63.77;44997.66;5109165;28;20492;-75
2022/05/15 06:54:37;;;;;;;10.17;3.83;;;;;;;-143.84;59.74;44988.13;5109131;28;20449;-73
2022/05/15 06:59:48;;;;;;;11.70;4.10;;;;;;;-143.84;59.40;44974.81;5110019;28;20418;-74
2022/05/15 07:02:17;;;;;;;7.00;3.73;;;;;;;-143.84;58.34;44986.22;5109481;28;20475;-73
2022/05/15 07:04:45;;;;;;;4.13;3.23;;;;;;;-143.84;53.86;44951.97;5104800;28;20569;-73
2022/05/15 07:07:12;;;;;;;3.50;3.20;;;;;;;-143.84;54.22;44969.09;5109989;28;20484;-73
2022/05/15 07:09:39;;;;;;;4.60;3.00;;;;;;;-143.84;52.48;44959.56;5096674;27;20471;-73
2022/05/15 07:12:08;;;;;;;4.20;3.77;;;;;;;-143.84;50.54;44959.56;5130372;27;20449;-74
2022/05/15 07:14:36;;;;;;;4.80;3.33;;;;;;;-143.84;50.48;44963.38;5102227;27;20852;-73
2022/05/15 07:17:04;;;;;;;4.93;3.03;;;;;;;-143.84;51.61;44953.88;5110421;28;20545;-73
2022/05/15 07:19:33;;;;;;;5.53;3.37;;;;;;;-143.84;54.45;44971.00;5092541;28;20452;-73
2022/05/15 07:22:01;;;;;;;6.10;3.07;;;;;;;-143.84;55.09;44938.63;5089592;28;20436;-73
2022/05/15 07:24:28;;;;;;;5.20;3.10;;;;;;;-143.84;50.63;44961.47;5089168;28;20458;-73
2022/05/15 07:26:55;;;;;;;7.10;3.23;;;;;;;-143.84;50.19;44938.63;5089582;28;20873;-73
2022/05/15 07:29:24;;;;;;;9.30;3.30;;;;;;;-143.84;50.30;44950.06;5089493;28;20501;-74
2022/05/15 07:31:53;;;;;;;3.40;3.20;;;;;;;-143.84;51.41;44955.75;5089365;28;20461;-73
2022/05/15 07:34:21;;;;;;;5.20;2.90;;;;;;;-143.84;48.91;44946.25;5089655;28;20436;-73
2022/05/15 07:36:52;;;;;;;3.37;3.17;;;;;;;-143.84;50.19;44929.09;5088638;28;20440;-73
2022/05/15 07:39:20;;;;;;;4.13;3.07;;;;;;;-143.84;49.99;44932.91;5088769;28;20446;-73
2022/05/15 07:41:48;;;;;;;4.20;3.13;;;;;;;-143.84;47.96;44961.47;5088713;28;20436;-74
2022/05/15 07:44:16;;;;;;;6.90;3.03;;;;;;;-143.84;46.66;44940.53;5088780;28;20439;-73
2022/05/15 07:46:44;;;;;;;10.23;3.17;;;;;;;-143.84;44.55;44931.00;5089071;28;20483;-73
2022/05/15 07:49:12;;;;;;;3.50;3.20;;;;;;;-143.84;44.73;44936.72;5089335;28;20455;-73
2022/05/15 07:51:44;;;;;;;4.40;2.87;;;;;;;-143.84;44.77;44919.59;5089162;28;20448;-73
2022/05/15 07:54:13;;;;;;;6.10;3.20;;;;;;;-143.84;46.14;44908.16;5088888;28;20448;-75
2022/05/15 07:56:41;;;;;;;2.50;2.10;;;;;;;-143.84;45.19;44919.59;5089446;28;20834;-74
2022/05/15 07:59:08;;;;;;;2.60;2.40;;;;;;;-143.84;44.11;44991.94;5088946;28;20439;-73
2022/05/15 08:01:35;;;;;;;3.17;2.80;;;;;;;-143.84;45.35;44942.44;5089118;28;20895;-73
2022/05/15 08:04:02;;;;;;;2.53;2.43;;;;;;;-143.84;43.19;44931.00;5089059;28;20443;-74
2022/05/15 08:09:16;;;;;;;4.63;3.23;;;;;;;-143.84;43.99;44919.59;5088762;28;20412;-73
2022/05/15 08:11:43;;;;;;;4.90;2.67;;;;;;;-143.84;45.52;44944.34;5089020;28;20463;-76
2022/05/15 08:14:11;;;;;;;15.63;3.27;;;;;;;-143.84;44.88;44931.00;5089111;28;20436;-74
2022/05/15 08:16:39;;;;;;;5.40;2.70;;;;;;;-143.84;44.55;44942.44;5088930;28;20440;-73
2022/05/15 08:24:40;;;;;;;3.00;2.80;;;;;;;-143.84;44.21;44957.66;5088647;28;20523;-74
2022/05/15 08:27:10;;;;;;;5.80;3.67;;;;;;;-143.84;44.85;44948.16;5088798;28;20949;-73
2022/05/15 08:29:37;;;;;;;3.27;2.97;;;;;;;-143.84;44.32;44940.53;5088702;28;20531;-74
2022/05/15 08:32:05;;;;;;;6.60;3.10;;;;;;;-143.84;45.01;44921.50;5088764;28;20428;-75
2022/05/15 08:34:33;;;;;;;4.20;3.30;;;;;;;-143.84;44.47;44955.75;5089029;28;20440;-72
2022/05/15 08:37:01;;;;;;;7.10;3.73;;;;;;;-143.84;44.34;44915.78;5088777;28;20439;-73
2022/05/15 08:39:29;;;;;;;4.90;3.30;;;;;;;-143.84;44.78;44934.81;5088193;28;20458;-74
2022/05/15 08:42:13;;;;;;;3.20;3.00;;;;;;;-143.84;44.04;44931.00;5088809;28;20843;-74
2022/05/15 08:44:45;;;;;;;4.00;3.50;;;;;;;-143.84;44.76;44932.91;5088671;28;20470;-74
2022/05/15 08:47:23;;;;;;;6.20;3.03;;;;;;;-143.84;44.55;44950.06;5088705;28;20448;-73
2022/05/15 08:49:54;;;;;;;6.60;3.67;;;;;;;-143.84;44.94;44950.06;5088540;28;20821;-74
2022/05/15 08:52:25;;;;;;;8.33;3.47;;;;;;;-143.84;42.85;44931.00;5088747;28;20934;-73
2022/05/15 08:54:57;;;;;;;4.60;4.20;;;;;;;-143.84;43.70;44923.41;5087907;28;20464;-73
2022/05/15 08:57:36;;;;;;;6.00;3.80;;;;;;;-143.84;44.70;44913.88;5088511;28;20444;-73
2022/05/15 09:00:10;;;;;;;4.70;4.27;;;;;;;-143.84;44.74;44950.06;5088035;28;20448;-73
2022/05/15 09:02:40;;;;;;;5.60;3.60;;;;;;;-143.84;44.54;44972.91;5089290;28;20493;-73
2022/05/15 09:05:08;;;;;;;8.70;4.30;;;;;;;-143.84;44.67;44944.34;5091216;28;20522;-74
2022/05/15 09:07:50;;;;;;;4.13;3.70;;;;;;;-143.84;45.67;44929.09;5091737;28;21381;-74
2022/05/15 09:10:24;;;;;;;4.60;3.30;;;;;;;-143.84;45.66;44921.50;5091886;28;20453;-73
2022/05/15 09:13:07;;;;;;;6.93;3.77;;;;;;;-143.84;44.20;44953.88;5094571;28;20457;-74
2022/05/15 09:15:36;;;;;;;4.93;4.00;;;;;;;-143.84;44.27;44936.72;5095870;28;21211;-74
2022/05/15 09:18:06;;;;;;;6.67;4.07;;;;;;;-143.84;45.27;44948.16;5094725;28;21379;-74
2022/05/15 09:20:49;;;;;;;12.17;4.47;;;;;;;-143.84;45.98;44948.16;5096245;28;20832;-73
2022/05/15 09:23:26;;;;;;;4.93;4.27;;;;;;;-143.84;46.83;44934.81;5092277;28;20876;-70
2022/05/15 09:25:56;;;;;;;4.30;3.90;;;;;;;-143.84;47.15;44944.34;5091145;28;20490;-69
2022/05/15 09:28:26;;;;;;;4.70;3.70;;;;;;;-143.84;46.46;44957.66;5094372;28;20440;-69
2022/05/15 09:30:56;;;;;;;5.70;4.23;;;;;;;-143.84;45.21;44934.81;5093800;28;20450;-70
2022/05/15 09:33:29;;;;;;;4.70;4.30;;;;;;;-143.84;45.67;44940.53;5093333;28;20439;-69
2022/05/15 09:36:23;;;;;;;13.17;3.90;;;;;;;-143.84;46.18;44946.25;5094599;28;20442;-69
2022/05/15 09:39:06;;;;;;;4.60;3.57;;;;;;;-143.84;44.79;44919.59;5095677;28;20439;-69
2022/05/15 09:44:28;;;;;;;7.10;3.70;;;;;;;-143.84;47.02;44961.47;5095371;28;20464;-70
2022/05/15 09:47:03;;;;;;;9.27;4.40;;;;;;;-143.84;44.96;44959.56;5094981;28;20466;-69
2022/05/15 09:49:34;;;;;;;6.53;3.90;;;;;;;-143.84;45.67;44944.34;5096817;28;20443;-69
2022/05/15 09:52:03;;;;;;;3.93;2.80;;;;;;;-143.84;46.28;44971.00;5094595;28;20439;-69
2022/05/15 09:54:43;;;;;;;4.83;4.07;;;;;;;-143.84;47.18;44963.38;5095710;28;20442;-73
2022/05/15 09:57:15;;;;;;;4.90;3.70;;;;;;;-143.84;47.32;44955.75;5094520;28;20443;-73
2022/05/15 09:59:51;;;;;;;5.47;4.10;;;;;;;-143.84;47.91;44957.66;5094092;28;20470;-73
2022/05/15 10:02:20;;;;;;;4.47;4.07;;;;;;;-143.84;49.43;44974.81;5091538;28;20491;-73
2022/05/15 10:04:50;;;;;;;5.00;3.97;;;;;;;-143.84;49.05;44953.88;5091473;28;20444;-73
2022/05/15 10:07:36;;;;;;;6.80;3.83;;;;;;;-143.84;50.87;44986.22;5092838;28;20536;-73
2022/05/15 10:10:18;;;;;;;4.33;4.07;;;;;;;-143.84;52.13;44957.66;5095600;28;20447;-73
2022/05/15 10:12:49;;;;;;;15.80;4.37;;;;;;;-143.84;52.94;44997.66;5092743;28;20431;-73
2022/05/15 10:15:18;;;;;;;11.17;4.17;;;;;;;-143.84;53.09;44984.31;5093112;28;20518;-73
2022/05/15 10:17:53;;;;;;;7.43;3.77;;;;;;;-143.84;53.92;44980.53;5094366;28;20455;-73
2022/05/15 10:20:24;;;;;;;5.10;4.20;;;;;;;-143.84;53.56;44967.19;5093611;28;20461;-73
2022/05/15 10:22:58;;;;;;;4.43;4.03;;;;;;;-143.84;54.35;44969.09;5095296;28;20440;-73
2022/05/15 10:25:35;;;;;;;8.63;3.90;;;;;;;-143.84;51.69;44953.88;5095088;28;20555;-73
2022/05/15 10:28:14;;;;;;;13.33;4.23;;;;;;;-143.84;54.83;44986.22;5092216;28;20536;-73
2022/05/15 10:30:52;;;;;;;4.60;4.07;;;;;;;-143.84;55.49;44988.13;5093860;28;20470;-74
2022/05/15 10:33:21;;;;;;;17.77;4.30;;;;;;;-143.84;55.65;44974.81;5092803;28;20450;-73
2022/05/15 10:35:57;;;;;;;4.10;3.60;;;;;;;-143.84;54.36;44971.00;5095524;28;20458;-74
2022/05/15 10:38:43;;;;;;;4.47;4.07;;;;;;;-143.84;54.10;44991.94;5093760;28;21313;-73
2022/05/15 10:41:19;;;;;;;7.33;3.93;;;;;;;-143.84;53.14;44984.31;5093518;28;20543;-74
2022/05/15 10:44:17;;;;;;;4.60;4.20;;;;;;;-143.84;53.01;44955.75;5093700;28;20798;-73
2022/05/15 10:46:51;;;;;;;9.90;3.70;;;;;;;-143.84;51.65;44978.63;5083291;28;20479;-73
2022/05/15 10:49:38;;;;;;;8.97;3.50;;;;;;;-143.84;50.97;45001.47;5094142;28;20453;-74
2022/05/15 10:52:16;;;;;;;4.40;4.00;;;;;;;-143.84;52.11;44986.22;5091457;28;20443;-72
2022/05/15 10:57:51;;;;;;;5.93;3.60;;;;;;;-143.84;53.55;44990.03;5090682;28;20462;-73
2022/05/15 11:00:21;;;;;;;4.83;3.60;;;;;;;-143.84;53.79;44991.94;5093631;28;21073;-76
2022/05/15 11:03:32;;;;;;;5.73;3.70;;;;;;;-143.84;54.73;44978.63;5091603;28;20482;-72
2022/05/15 11:06:23;;;;;;;5.50;4.03;;;;;;;-143.84;55.17;44976.72;5089312;28;20535;-72
2022/05/15 11:08:56;;;;;;;6.23;3.90;;;;;;;-143.84;55.24;44988.13;5094996;28;21095;-71
2022/05/15 11:11:40;;;;;;;4.70;4.30;;;;;;;-143.84;54.17;45003.38;5090159;28;21010;-68
2022/05/15 11:14:15;;;;;;;5.90;3.70;;;;;;;-143.84;52.87;44984.31;5091953;28;20445;-69
2022/05/15 11:16:49;;;;;;;7.90;4.37;;;;;;;-143.84;52.25;44993.84;5092599;28;20443;-68
2022/05/15 11:19:31;;;;;;;5.57;3.60;;;;;;;-143.84;55.08;44988.13;5092149;28;20455;-72
2022/05/15 11:22:06;;;;;;;5.20;4.10;;;;;;;-143.84;53.49;44986.22;5092962;28;20438;-72
2022/05/15 11:24:44;;;;;;;8.63;4.30;;;;;;;-143.84;54.95;44978.63;5093665;28;20436;-72
2022/05/15 11:27:19;;;;;;;5.10;4.73;;;;;;;-143.84;54.63;44978.63;5098812;28;20473;-73
2022/05/15 11:29:50;;;;;;;5.10;4.73;;;;;;;-143.84;54.26;44993.84;5094099;28;20458;-74
2022/05/15 11:32:40;;;;;;;15.43;6.27;;;;;;;-143.84;54.30;44982.41;5094087;28;20451;-71
2022/05/15 11:35:25;;;;;;;9.50;6.50;;;;;;;-143.84;53.95;45005.28;5092081;28;20447;-73
2022/05/15 11:38:11;;;;;;;56.40;52.67;;;;;;;-143.84;55.71;45010.97;5091627;28;20446;-71
2022/05/15 11:40:42;;;;;;;36.30;33.50;;;;;;;-143.84;56.41;45010.97;5092993;28;20435;-73
2022/05/15 11:43:57;;;;;;;40.63;34.93;;;;;;;-143.84;55.53;44961.47;5089111;28;20531;-71
2022/05/15 11:47:01;;;;;;;1827.40;999.90;;;;;;;-143.84;56.97;45007.19;5090114;28;20614;-68
2022/05/15 11:49:37;;;;;;;676.33;605.03;;;;;;;-143.84;59.20;44999.56;5092925;28;20455;-69